Tipton, Missouri
Current Conditions -  °F | °C
As of 11:55 PM on Saturday 22 Nov 2014 (Local Time) from KVER Reporting Station
Clear Clear  
Wind Chill: 12°   Ceiling: Unl
Heat Index: 12°   Visibility: 10mi
Dew Point: 11°   Wind: 9mph
Humidity: 90%   Direction: 150°SSE
Pressure: 29.75"   Gusts: NA
Location:  38.66°N, 92.78°W
Report Text: KVER 230555Z AUTO 15008KT 10SM CLR 12/11 A2975 RMK AO2 T01210105 10167 21110 401671110
Loading
Personal Weather Stations






























Interactive Weather Map New forecast layout! Learn more

10-Day Weather Forecast

Advertisements
Track Severe Weather on mobile